sensor_id;sensor_type;location;lat;lon;timestamp;P1;durP1;ratioP1;P2;durP2;ratioP2
26042;SDS011;13818;52.156;5.382;2023-07-31T00:00:43;1.70;;;0.65;;
26042;SDS011;13818;52.156;5.382;2023-07-31T00:03:11;1.23;;;0.45;;
26042;SDS011;13818;52.156;5.382;2023-07-31T00:05:37;1.08;;;0.50;;
26042;SDS011;13818;52.156;5.382;2023-07-31T00:08:05;1.05;;;0.50;;
26042;SDS011;13818;52.156;5.382;2023-07-31T00:10:32;2.15;;;0.55;;
26042;SDS011;13818;52.156;5.382;2023-07-31T00:12:58;2.47;;;0.63;;
26042;SDS011;13818;52.156;5.382;2023-07-31T00:15:25;1.48;;;0.52;;
26042;SDS011;13818;52.156;5.382;2023-07-31T00:17:51;1.15;;;0.60;;
26042;SDS011;13818;52.156;5.382;2023-07-31T00:20:18;1.92;;;0.80;;
26042;SDS011;13818;52.156;5.382;2023-07-31T00:22:44;1.60;;;0.77;;
26042;SDS011;13818;52.156;5.382;2023-07-31T00:25:12;1.10;;;0.50;;
26042;SDS011;13818;52.156;5.382;2023-07-31T00:27:38;1.45;;;0.63;;
26042;SDS011;13818;52.156;5.382;2023-07-31T00:30:09;1.15;;;0.70;;
26042;SDS011;13818;52.156;5.382;2023-07-31T00:32:36;2.20;;;0.80;;
26042;SDS011;13818;52.156;5.382;2023-07-31T00:35:03;1.77;;;0.88;;
26042;SDS011;13818;52.156;5.382;2023-07-31T00:37:30;2.33;;;0.80;;
26042;SDS011;13818;52.156;5.382;2023-07-31T00:39:57;1.63;;;0.98;;
26042;SDS011;13818;52.156;5.382;2023-07-31T00:42:25;2.35;;;1.27;;
26042;SDS011;13818;52.156;5.382;2023-07-31T00:44:51;3.25;;;1.27;;
26042;SDS011;13818;52.156;5.382;2023-07-31T00:47:18;3.67;;;1.48;;
26042;SDS011;13818;52.156;5.382;2023-07-31T00:49:44;3.75;;;1.20;;
26042;SDS011;13818;52.156;5.382;2023-07-31T00:52:11;5.68;;;1.55;;
26042;SDS011;13818;52.156;5.382;2023-07-31T00:54:38;3.83;;;1.52;;
26042;SDS011;13818;52.156;5.382;2023-07-31T00:57:05;5.22;;;1.48;;
26042;SDS011;13818;52.156;5.382;2023-07-31T00:59:34;5.35;;;1.80;;
26042;SDS011;13818;52.156;5.382;2023-07-31T01:02:00;9.45;;;1.95;;
26042;SDS011;13818;52.156;5.382;2023-07-31T01:04:29;8.63;;;2.25;;
26042;SDS011;13818;52.156;5.382;2023-07-31T01:06:56;8.10;;;2.53;;
26042;SDS011;13818;52.156;5.382;2023-07-31T01:09:29;7.90;;;2.17;;
26042;SDS011;13818;52.156;5.382;2023-07-31T01:12:02;8.50;;;2.38;;
26042;SDS011;13818;52.156;5.382;2023-07-31T01:14:30;8.23;;;2.03;;
26042;SDS011;13818;52.156;5.382;2023-07-31T01:16:57;3.78;;;1.70;;
26042;SDS011;13818;52.156;5.382;2023-07-31T01:19:24;6.32;;;1.40;;
26042;SDS011;13818;52.156;5.382;2023-07-31T01:22:03;3.28;;;1.83;;
26042;SDS011;13818;52.156;5.382;2023-07-31T01:24:44;3.25;;;1.23;;
26042;SDS011;13818;52.156;5.382;2023-07-31T01:27:23;7.05;;;1.42;;
26042;SDS011;13818;52.156;5.382;2023-07-31T01:29:55;5.68;;;1.45;;
26042;SDS011;13818;52.156;5.382;2023-07-31T01:32:26;6.88;;;1.42;;
26042;SDS011;13818;52.156;5.382;2023-07-31T01:34:54;5.75;;;1.33;;
26042;SDS011;13818;52.156;5.382;2023-07-31T01:37:27;3.13;;;1.08;;
26042;SDS011;13818;52.156;5.382;2023-07-31T01:39:54;3.63;;;0.93;;
26042;SDS011;13818;52.156;5.382;2023-07-31T01:42:21;4.90;;;1.02;;
26042;SDS011;13818;52.156;5.382;2023-07-31T01:44:48;3.00;;;0.70;;
26042;SDS011;13818;52.156;5.382;2023-07-31T01:47:14;1.98;;;0.65;;
26042;SDS011;13818;52.156;5.382;2023-07-31T01:49:41;0.95;;;0.60;;
26042;SDS011;13818;52.156;5.382;2023-07-31T01:52:07;5.10;;;1.33;;
26042;SDS011;13818;52.156;5.382;2023-07-31T01:54:34;3.72;;;1.15;;
26042;SDS011;13818;52.156;5.382;2023-07-31T01:57:01;3.15;;;1.25;;
26042;SDS011;13818;52.156;5.382;2023-07-31T01:59:29;10.20;;;1.73;;
26042;SDS011;13818;52.156;5.382;2023-07-31T02:01:56;9.27;;;2.47;;
26042;SDS011;13818;52.156;5.382;2023-07-31T02:04:22;5.47;;;2.08;;
26042;SDS011;13818;52.156;5.382;2023-07-31T02:06:48;11.13;;;2.15;;
26042;SDS011;13818;52.156;5.382;2023-07-31T02:09:15;11.15;;;2.72;;
26042;SDS011;13818;52.156;5.382;2023-07-31T02:11:41;13.05;;;2.63;;
26042;SDS011;13818;52.156;5.382;2023-07-31T02:14:08;10.20;;;2.20;;
26042;SDS011;13818;52.156;5.382;2023-07-31T02:16:36;5.95;;;1.67;;
26042;SDS011;13818;52.156;5.382;2023-07-31T02:19:02;7.38;;;2.28;;
26042;SDS011;13818;52.156;5.382;2023-07-31T02:21:28;10.57;;;2.30;;
26042;SDS011;13818;52.156;5.382;2023-07-31T02:23:55;7.03;;;2.30;;
26042;SDS011;13818;52.156;5.382;2023-07-31T02:26:21;11.27;;;2.92;;
26042;SDS011;13818;52.156;5.382;2023-07-31T02:28:48;8.80;;;2.55;;
26042;SDS011;13818;52.156;5.382;2023-07-31T02:31:14;7.93;;;2.28;;
26042;SDS011;13818;52.156;5.382;2023-07-31T02:33:42;7.63;;;2.28;;
26042;SDS011;13818;52.156;5.382;2023-07-31T02:36:08;8.55;;;2.63;;
26042;SDS011;13818;52.156;5.382;2023-07-31T02:38:35;16.08;;;2.67;;
26042;SDS011;13818;52.156;5.382;2023-07-31T02:41:01;10.70;;;2.53;;
26042;SDS011;13818;52.156;5.382;2023-07-31T02:43:28;14.70;;;2.55;;
26042;SDS011;13818;52.156;5.382;2023-07-31T02:45:54;15.00;;;3.38;;
26042;SDS011;13818;52.156;5.382;2023-07-31T02:48:21;5.97;;;2.38;;
26042;SDS011;13818;52.156;5.382;2023-07-31T02:50:48;8.57;;;1.92;;
26042;SDS011;13818;52.156;5.382;2023-07-31T02:53:15;9.88;;;2.42;;
26042;SDS011;13818;52.156;5.382;2023-07-31T02:55:41;12.70;;;3.38;;
26042;SDS011;13818;52.156;5.382;2023-07-31T02:58:08;7.95;;;2.33;;
26042;SDS011;13818;52.156;5.382;2023-07-31T03:00:34;8.60;;;2.08;;
26042;SDS011;13818;52.156;5.382;2023-07-31T03:03:01;8.45;;;2.50;;
26042;SDS011;13818;52.156;5.382;2023-07-31T03:05:27;12.65;;;3.20;;
26042;SDS011;13818;52.156;5.382;2023-07-31T03:07:55;9.32;;;2.83;;
26042;SDS011;13818;52.156;5.382;2023-07-31T03:10:21;7.35;;;3.15;;
26042;SDS011;13818;52.156;5.382;2023-07-31T03:12:48;11.55;;;2.35;;
26042;SDS011;13818;52.156;5.382;2023-07-31T03:15:14;15.55;;;2.97;;
26042;SDS011;13818;52.156;5.382;2023-07-31T03:17:41;10.68;;;2.45;;
26042;SDS011;13818;52.156;5.382;2023-07-31T03:20:08;12.43;;;3.38;;
26042;SDS011;13818;52.156;5.382;2023-07-31T03:22:35;14.40;;;3.28;;
26042;SDS011;13818;52.156;5.382;2023-07-31T03:25:03;9.88;;;2.75;;
26042;SDS011;13818;52.156;5.382;2023-07-31T03:27:30;11.85;;;2.72;;
26042;SDS011;13818;52.156;5.382;2023-07-31T03:29:56;5.25;;;2.15;;
26042;SDS011;13818;52.156;5.382;2023-07-31T03:32:24;8.40;;;3.08;;
26042;SDS011;13818;52.156;5.382;2023-07-31T03:34:50;15.52;;;3.30;;
26042;SDS011;13818;52.156;5.382;2023-07-31T03:37:16;15.07;;;2.85;;
26042;SDS011;13818;52.156;5.382;2023-07-31T03:39:43;10.25;;;2.65;;
26042;SDS011;13818;52.156;5.382;2023-07-31T03:42:11;9.27;;;3.03;;
26042;SDS011;13818;52.156;5.382;2023-07-31T03:44:37;10.02;;;3.30;;
26042;SDS011;13818;52.156;5.382;2023-07-31T03:47:04;9.85;;;3.15;;
26042;SDS011;13818;52.156;5.382;2023-07-31T03:49:31;11.48;;;2.80;;
26042;SDS011;13818;52.156;5.382;2023-07-31T03:51:57;14.25;;;3.17;;
26042;SDS011;13818;52.156;5.382;2023-07-31T03:54:24;12.00;;;3.10;;
26042;SDS011;13818;52.156;5.382;2023-07-31T03:56:50;7.63;;;2.67;;
26042;SDS011;13818;52.156;5.382;2023-07-31T03:59:18;10.48;;;3.25;;
26042;SDS011;13818;52.156;5.382;2023-07-31T04:01:44;13.02;;;3.38;;
26042;SDS011;13818;52.156;5.382;2023-07-31T04:04:11;15.70;;;3.00;;
26042;SDS011;13818;52.156;5.382;2023-07-31T04:06:37;17.23;;;3.47;;
26042;SDS011;13818;52.156;5.382;2023-07-31T04:09:04;11.60;;;3.63;;
26042;SDS011;13818;52.156;5.382;2023-07-31T04:11:30;8.77;;;3.53;;
26042;SDS011;13818;52.156;5.382;2023-07-31T04:13:57;13.98;;;3.28;;
26042;SDS011;13818;52.156;5.382;2023-07-31T04:16:24;10.07;;;3.80;;
26042;SDS011;13818;52.156;5.382;2023-07-31T04:18:51;11.38;;;3.20;;
26042;SDS011;13818;52.156;5.382;2023-07-31T04:21:17;7.35;;;3.10;;
26042;SDS011;13818;52.156;5.382;2023-07-31T04:23:44;9.82;;;2.65;;
26042;SDS011;13818;52.156;5.382;2023-07-31T04:26:10;11.77;;;2.97;;
26042;SDS011;13818;52.156;5.382;2023-07-31T04:28:36;9.75;;;3.65;;
26042;SDS011;13818;52.156;5.382;2023-07-31T04:31:03;11.50;;;3.00;;
26042;SDS011;13818;52.156;5.382;2023-07-31T04:33:31;13.30;;;3.10;;
26042;SDS011;13818;52.156;5.382;2023-07-31T04:35:58;13.85;;;3.45;;
26042;SDS011;13818;52.156;5.382;2023-07-31T04:38:25;8.35;;;2.95;;
26042;SDS011;13818;52.156;5.382;2023-07-31T04:40:51;8.80;;;3.15;;
26042;SDS011;13818;52.156;5.382;2023-07-31T04:43:18;9.25;;;3.05;;
26042;SDS011;13818;52.156;5.382;2023-07-31T04:45:45;7.53;;;2.38;;
26042;SDS011;13818;52.156;5.382;2023-07-31T04:48:12;8.07;;;2.72;;
26042;SDS011;13818;52.156;5.382;2023-07-31T04:50:40;9.80;;;3.17;;
26042;SDS011;13818;52.156;5.382;2023-07-31T04:53:07;10.20;;;2.50;;
26042;SDS011;13818;52.156;5.382;2023-07-31T04:55:33;15.82;;;3.22;;
26042;SDS011;13818;52.156;5.382;2023-07-31T04:57:59;8.90;;;2.60;;
26042;SDS011;13818;52.156;5.382;2023-07-31T05:00:26;8.30;;;2.63;;
26042;SDS011;13818;52.156;5.382;2023-07-31T05:02:52;10.23;;;3.38;;
26042;SDS011;13818;52.156;5.382;2023-07-31T05:05:19;9.55;;;2.35;;
26042;SDS011;13818;52.156;5.382;2023-07-31T05:07:46;6.82;;;2.40;;
26042;SDS011;13818;52.156;5.382;2023-07-31T05:10:13;9.40;;;2.83;;
26042;SDS011;13818;52.156;5.382;2023-07-31T05:12:40;8.60;;;3.05;;
26042;SDS011;13818;52.156;5.382;2023-07-31T05:15:07;9.90;;;2.83;;
26042;SDS011;13818;52.156;5.382;2023-07-31T05:17:34;10.90;;;2.28;;
26042;SDS011;13818;52.156;5.382;2023-07-31T05:20:01;7.53;;;2.38;;
26042;SDS011;13818;52.156;5.382;2023-07-31T05:22:27;6.13;;;2.35;;
26042;SDS011;13818;52.156;5.382;2023-07-31T05:24:55;7.47;;;2.58;;
26042;SDS011;13818;52.156;5.382;2023-07-31T05:27:21;5.90;;;2.60;;
26042;SDS011;13818;52.156;5.382;2023-07-31T05:29:48;4.20;;;2.20;;
26042;SDS011;13818;52.156;5.382;2023-07-31T05:32:14;7.20;;;2.78;;
26042;SDS011;13818;52.156;5.382;2023-07-31T05:34:41;5.32;;;2.30;;
26042;SDS011;13818;52.156;5.382;2023-07-31T05:37:09;8.57;;;2.10;;
26042;SDS011;13818;52.156;5.382;2023-07-31T05:39:36;3.13;;;1.63;;
26042;SDS011;13818;52.156;5.382;2023-07-31T05:42:04;5.47;;;1.95;;
26042;SDS011;13818;52.156;5.382;2023-07-31T05:44:31;3.08;;;1.23;;
26042;SDS011;13818;52.156;5.382;2023-07-31T05:46:57;5.35;;;2.08;;
26042;SDS011;13818;52.156;5.382;2023-07-31T05:49:24;5.05;;;1.52;;
26042;SDS011;13818;52.156;5.382;2023-07-31T05:51:50;2.67;;;1.45;;
26042;SDS011;13818;52.156;5.382;2023-07-31T05:54:17;4.65;;;1.60;;
26042;SDS011;13818;52.156;5.382;2023-07-31T05:56:43;3.83;;;1.80;;
26042;SDS011;13818;52.156;5.382;2023-07-31T05:59:11;2.78;;;1.27;;
26042;SDS011;13818;52.156;5.382;2023-07-31T06:01:38;6.75;;;1.67;;
26042;SDS011;13818;52.156;5.382;2023-07-31T06:04:05;5.93;;;1.73;;
26042;SDS011;13818;52.156;5.382;2023-07-31T06:06:31;6.28;;;2.25;;
26042;SDS011;13818;52.156;5.382;2023-07-31T06:08:58;7.50;;;1.75;;
26042;SDS011;13818;52.156;5.382;2023-07-31T06:11:24;4.55;;;1.95;;
26042;SDS011;13818;52.156;5.382;2023-07-31T06:13:51;4.80;;;2.10;;
26042;SDS011;13818;52.156;5.382;2023-07-31T06:16:19;5.50;;;2.03;;
26042;SDS011;13818;52.156;5.382;2023-07-31T06:18:46;5.35;;;2.20;;
26042;SDS011;13818;52.156;5.382;2023-07-31T06:21:13;10.27;;;2.10;;
26042;SDS011;13818;52.156;5.382;2023-07-31T06:23:39;6.13;;;2.35;;
26042;SDS011;13818;52.156;5.382;2023-07-31T06:26:06;5.15;;;2.28;;
26042;SDS011;13818;52.156;5.382;2023-07-31T06:28:33;6.97;;;2.20;;
26042;SDS011;13818;52.156;5.382;2023-07-31T06:30:59;5.45;;;1.90;;
26042;SDS011;13818;52.156;5.382;2023-07-31T06:33:27;5.80;;;2.65;;
26042;SDS011;13818;52.156;5.382;2023-07-31T06:35:54;6.55;;;2.30;;
26042;SDS011;13818;52.156;5.382;2023-07-31T06:38:22;4.30;;;1.95;;
26042;SDS011;13818;52.156;5.382;2023-07-31T06:40:50;8.88;;;1.88;;
26042;SDS011;13818;52.156;5.382;2023-07-31T06:43:17;6.93;;;1.80;;
26042;SDS011;13818;52.156;5.382;2023-07-31T06:45:43;4.88;;;1.60;;
26042;SDS011;13818;52.156;5.382;2023-07-31T06:48:11;5.25;;;1.88;;
26042;SDS011;13818;52.156;5.382;2023-07-31T06:50:38;2.88;;;1.38;;
26042;SDS011;13818;52.156;5.382;2023-07-31T06:53:05;6.38;;;1.50;;
26042;SDS011;13818;52.156;5.382;2023-07-31T06:55:31;5.00;;;1.70;;
26042;SDS011;13818;52.156;5.382;2023-07-31T06:57:58;2.58;;;1.17;;
26042;SDS011;13818;52.156;5.382;2023-07-31T07:00:25;3.53;;;1.58;;
26042;SDS011;13818;52.156;5.382;2023-07-31T07:02:51;7.35;;;1.83;;
26042;SDS011;13818;52.156;5.382;2023-07-31T07:05:18;2.35;;;1.48;;
26042;SDS011;13818;52.156;5.382;2023-07-31T07:07:45;3.33;;;1.30;;
26042;SDS011;13818;52.156;5.382;2023-07-31T07:10:12;4.32;;;1.58;;
26042;SDS011;13818;52.156;5.382;2023-07-31T07:12:38;2.13;;;1.23;;
26042;SDS011;13818;52.156;5.382;2023-07-31T07:15:05;4.78;;;1.40;;
26042;SDS011;13818;52.156;5.382;2023-07-31T07:17:32;3.88;;;1.27;;
26042;SDS011;13818;52.156;5.382;2023-07-31T07:19:59;2.55;;;1.50;;
26042;SDS011;13818;52.156;5.382;2023-07-31T07:22:26;3.35;;;1.42;;
26042;SDS011;13818;52.156;5.382;2023-07-31T07:24:54;3.28;;;1.40;;
26042;SDS011;13818;52.156;5.382;2023-07-31T07:27:21;4.68;;;1.38;;
26042;SDS011;13818;52.156;5.382;2023-07-31T07:29:49;1.90;;;1.02;;
26042;SDS011;13818;52.156;5.382;2023-07-31T07:32:16;3.25;;;1.38;;
26042;SDS011;13818;52.156;5.382;2023-07-31T07:34:43;3.35;;;1.25;;
26042;SDS011;13818;52.156;5.382;2023-07-31T07:37:10;3.20;;;1.40;;
26042;SDS011;13818;52.156;5.382;2023-07-31T07:39:36;2.35;;;1.00;;
26042;SDS011;13818;52.156;5.382;2023-07-31T07:42:04;2.78;;;1.38;;
26042;SDS011;13818;52.156;5.382;2023-07-31T07:46:57;2.88;;;0.98;;
26042;SDS011;13818;52.156;5.382;2023-07-31T07:49:24;2.85;;;1.15;;
26042;SDS011;13818;52.156;5.382;2023-07-31T07:51:50;1.63;;;1.15;;
26042;SDS011;13818;52.156;5.382;2023-07-31T07:54:16;3.47;;;1.20;;
26042;SDS011;13818;52.156;5.382;2023-07-31T07:56:44;5.38;;;1.52;;
26042;SDS011;13818;52.156;5.382;2023-07-31T07:59:12;2.85;;;1.23;;
26042;SDS011;13818;52.156;5.382;2023-07-31T08:01:38;2.50;;;0.75;;
26042;SDS011;13818;52.156;5.382;2023-07-31T08:04:04;3.85;;;1.50;;
26042;SDS011;13818;52.156;5.382;2023-07-31T08:06:31;2.42;;;1.05;;
26042;SDS011;13818;52.156;5.382;2023-07-31T08:08:57;3.33;;;1.50;;
26042;SDS011;13818;52.156;5.382;2023-07-31T08:11:30;2.58;;;1.10;;
26042;SDS011;13818;52.156;5.382;2023-07-31T08:13:56;2.35;;;1.13;;
26042;SDS011;13818;52.156;5.382;2023-07-31T08:16:24;2.88;;;1.05;;
26042;SDS011;13818;52.156;5.382;2023-07-31T08:18:51;1.67;;;0.80;;
26042;SDS011;13818;52.156;5.382;2023-07-31T08:21:17;3.50;;;1.38;;
26042;SDS011;13818;52.156;5.382;2023-07-31T08:23:44;3.05;;;1.00;;
26042;SDS011;13818;52.156;5.382;2023-07-31T08:26:14;1.83;;;1.00;;
26042;SDS011;13818;52.156;5.382;2023-07-31T08:28:40;1.63;;;0.82;;
26042;SDS011;13818;52.156;5.382;2023-07-31T08:31:07;2.55;;;0.88;;
26042;SDS011;13818;52.156;5.382;2023-07-31T08:33:35;1.90;;;0.93;;
26042;SDS011;13818;52.156;5.382;2023-07-31T08:36:01;2.05;;;0.82;;
26042;SDS011;13818;52.156;5.382;2023-07-31T08:38:28;2.17;;;1.00;;
26042;SDS011;13818;52.156;5.382;2023-07-31T08:40:56;2.88;;;0.80;;
26042;SDS011;13818;52.156;5.382;2023-07-31T08:43:22;2.60;;;1.00;;
26042;SDS011;13818;52.156;5.382;2023-07-31T08:45:52;1.42;;;0.80;;
26042;SDS011;13818;52.156;5.382;2023-07-31T08:48:19;2.70;;;0.63;;
26042;SDS011;13818;52.156;5.382;2023-07-31T08:50:48;2.80;;;0.90;;
26042;SDS011;13818;52.156;5.382;2023-07-31T08:53:14;18.38;;;5.03;;
26042;SDS011;13818;52.156;5.382;2023-07-31T08:55:41;0.90;;;0.70;;
26042;SDS011;13818;52.156;5.382;2023-07-31T08:58:09;1.58;;;0.80;;
26042;SDS011;13818;52.156;5.382;2023-07-31T09:00:38;1.15;;;0.70;;
26042;SDS011;13818;52.156;5.382;2023-07-31T09:03:07;1.98;;;0.63;;
26042;SDS011;13818;52.156;5.382;2023-07-31T09:05:37;1.33;;;0.77;;
26042;SDS011;13818;52.156;5.382;2023-07-31T09:08:09;1.38;;;0.77;;
26042;SDS011;13818;52.156;5.382;2023-07-31T09:10:37;1.48;;;0.55;;
26042;SDS011;13818;52.156;5.382;2023-07-31T09:13:06;1.73;;;0.47;;
26042;SDS011;13818;52.156;5.382;2023-07-31T09:15:33;1.75;;;0.68;;
26042;SDS011;13818;52.156;5.382;2023-07-31T09:18:01;1.60;;;0.73;;
26042;SDS011;13818;52.156;5.382;2023-07-31T09:20:29;0.63;;;0.50;;
26042;SDS011;13818;52.156;5.382;2023-07-31T09:22:56;1.33;;;0.60;;
26042;SDS011;13818;52.156;5.382;2023-07-31T09:25:32;1.65;;;0.75;;
26042;SDS011;13818;52.156;5.382;2023-07-31T09:27:59;1.40;;;0.70;;
26042;SDS011;13818;52.156;5.382;2023-07-31T09:30:26;1.48;;;0.82;;
26042;SDS011;13818;52.156;5.382;2023-07-31T09:33:00;2.20;;;0.82;;
26042;SDS011;13818;52.156;5.382;2023-07-31T09:35:29;2.10;;;0.85;;
26042;SDS011;13818;52.156;5.382;2023-07-31T09:40:27;1.40;;;0.90;;
26042;SDS011;13818;52.156;5.382;2023-07-31T09:42:57;1.20;;;0.80;;
26042;SDS011;13818;52.156;5.382;2023-07-31T09:45:24;1.30;;;0.85;;
26042;SDS011;13818;52.156;5.382;2023-07-31T09:47:51;1.67;;;1.00;;
26042;SDS011;13818;52.156;5.382;2023-07-31T09:50:19;2.88;;;1.20;;
26042;SDS011;13818;52.156;5.382;2023-07-31T09:55:13;3.50;;;1.08;;
26042;SDS011;13818;52.156;5.382;2023-07-31T09:57:40;2.22;;;1.00;;
26042;SDS011;13818;52.156;5.382;2023-07-31T10:00:09;2.75;;;1.13;;
26042;SDS011;13818;52.156;5.382;2023-07-31T10:02:37;3.35;;;0.80;;
26042;SDS011;13818;52.156;5.382;2023-07-31T10:05:05;2.63;;;0.80;;
26042;SDS011;13818;52.156;5.382;2023-07-31T10:07:33;1.33;;;0.85;;
26042;SDS011;13818;52.156;5.382;2023-07-31T10:10:02;1.58;;;1.00;;
26042;SDS011;13818;52.156;5.382;2023-07-31T10:12:31;2.53;;;0.90;;
26042;SDS011;13818;52.156;5.382;2023-07-31T10:14:59;1.50;;;0.90;;
26042;SDS011;13818;52.156;5.382;2023-07-31T10:17:28;0.98;;;0.75;;
26042;SDS011;13818;52.156;5.382;2023-07-31T10:19:56;4.25;;;0.90;;
26042;SDS011;13818;52.156;5.382;2023-07-31T10:22:24;1.80;;;0.95;;
26042;SDS011;13818;52.156;5.382;2023-07-31T10:24:51;3.13;;;1.13;;
26042;SDS011;13818;52.156;5.382;2023-07-31T10:27:21;1.90;;;1.30;;
26042;SDS011;13818;52.156;5.382;2023-07-31T10:29:47;2.40;;;1.13;;
26042;SDS011;13818;52.156;5.382;2023-07-31T10:32:15;1.95;;;1.00;;
26042;SDS011;13818;52.156;5.382;2023-07-31T10:34:44;3.53;;;1.60;;
26042;SDS011;13818;52.156;5.382;2023-07-31T10:37:19;6.78;;;1.58;;
26042;SDS011;13818;52.156;5.382;2023-07-31T10:39:45;3.65;;;1.85;;
26042;SDS011;13818;52.156;5.382;2023-07-31T10:42:26;3.85;;;1.50;;
26042;SDS011;13818;52.156;5.382;2023-07-31T10:44:56;2.60;;;1.42;;
26042;SDS011;13818;52.156;5.382;2023-07-31T10:47:26;4.35;;;1.92;;
26042;SDS011;13818;52.156;5.382;2023-07-31T10:49:53;4.60;;;1.77;;
26042;SDS011;13818;52.156;5.382;2023-07-31T10:52:37;3.15;;;1.40;;
26042;SDS011;13818;52.156;5.382;2023-07-31T10:55:14;3.25;;;1.58;;
26042;SDS011;13818;52.156;5.382;2023-07-31T10:57:51;3.53;;;1.73;;
26042;SDS011;13818;52.156;5.382;2023-07-31T11:00:18;2.63;;;1.45;;
26042;SDS011;13818;52.156;5.382;2023-07-31T11:02:55;3.97;;;1.75;;
26042;SDS011;13818;52.156;5.382;2023-07-31T11:05:23;2.67;;;1.65;;
26042;SDS011;13818;52.156;5.382;2023-07-31T11:08:10;3.15;;;1.50;;
26042;SDS011;13818;52.156;5.382;2023-07-31T11:10:37;5.10;;;1.80;;
26042;SDS011;13818;52.156;5.382;2023-07-31T11:13:04;2.53;;;1.50;;
26042;SDS011;13818;52.156;5.382;2023-07-31T11:15:30;2.55;;;1.45;;
26042;SDS011;13818;52.156;5.382;2023-07-31T11:17:57;2.30;;;1.30;;
26042;SDS011;13818;52.156;5.382;2023-07-31T11:20:25;2.22;;;1.33;;
26042;SDS011;13818;52.156;5.382;2023-07-31T11:22:51;1.85;;;1.15;;
26042;SDS011;13818;52.156;5.382;2023-07-31T11:25:18;2.00;;;1.08;;
26042;SDS011;13818;52.156;5.382;2023-07-31T11:27:45;2.47;;;1.10;;
26042;SDS011;13818;52.156;5.382;2023-07-31T11:30:11;2.85;;;1.00;;
26042;SDS011;13818;52.156;5.382;2023-07-31T11:32:38;2.47;;;0.80;;
26042;SDS011;13818;52.156;5.382;2023-07-31T11:35:05;1.58;;;0.90;;
26042;SDS011;13818;52.156;5.382;2023-07-31T11:37:40;2.05;;;1.02;;
26042;SDS011;13818;52.156;5.382;2023-07-31T11:40:08;2.70;;;0.85;;
26042;SDS011;13818;52.156;5.382;2023-07-31T11:42:35;2.58;;;0.80;;
26042;SDS011;13818;52.156;5.382;2023-07-31T11:45:02;2.60;;;0.90;;
26042;SDS011;13818;52.156;5.382;2023-07-31T11:47:29;1.35;;;0.60;;
26042;SDS011;13818;52.156;5.382;2023-07-31T11:49:59;2.50;;;0.88;;
26042;SDS011;13818;52.156;5.382;2023-07-31T11:52:26;4.80;;;1.02;;
26042;SDS011;13818;52.156;5.382;2023-07-31T11:54:54;3.05;;;1.05;;
26042;SDS011;13818;52.156;5.382;2023-07-31T11:57:21;2.03;;;1.02;;
26042;SDS011;13818;52.156;5.382;2023-07-31T11:59:48;2.55;;;1.33;;
26042;SDS011;13818;52.156;5.382;2023-07-31T12:02:16;3.03;;;1.33;;
26042;SDS011;13818;52.156;5.382;2023-07-31T12:04:45;2.45;;;1.60;;
26042;SDS011;13818;52.156;5.382;2023-07-31T12:07:12;3.92;;;1.70;;
26042;SDS011;13818;52.156;5.382;2023-07-31T12:09:39;2.78;;;1.70;;
26042;SDS011;13818;52.156;5.382;2023-07-31T12:12:20;1.90;;;1.42;;
26042;SDS011;13818;52.156;5.382;2023-07-31T12:14:47;3.13;;;1.40;;
26042;SDS011;13818;52.156;5.382;2023-07-31T12:17:15;3.85;;;1.85;;
26042;SDS011;13818;52.156;5.382;2023-07-31T12:19:43;2.28;;;1.58;;
26042;SDS011;13818;52.156;5.382;2023-07-31T12:22:12;2.42;;;1.55;;
26042;SDS011;13818;52.156;5.382;2023-07-31T12:24:39;2.80;;;1.75;;
26042;SDS011;13818;52.156;5.382;2023-07-31T12:27:10;2.78;;;1.40;;
26042;SDS011;13818;52.156;5.382;2023-07-31T12:29:39;2.72;;;1.40;;
26042;SDS011;13818;52.156;5.382;2023-07-31T12:32:18;3.13;;;1.23;;
26042;SDS011;13818;52.156;5.382;2023-07-31T12:34:49;2.92;;;1.50;;
26042;SDS011;13818;52.156;5.382;2023-07-31T12:37:15;2.78;;;1.38;;
26042;SDS011;13818;52.156;5.382;2023-07-31T12:39:42;2.55;;;1.48;;
26042;SDS011;13818;52.156;5.382;2023-07-31T12:42:08;3.42;;;1.55;;
26042;SDS011;13818;52.156;5.382;2023-07-31T12:44:35;1.80;;;1.13;;
26042;SDS011;13818;52.156;5.382;2023-07-31T12:47:02;2.53;;;1.40;;
26042;SDS011;13818;52.156;5.382;2023-07-31T12:49:29;2.53;;;1.33;;
26042;SDS011;13818;52.156;5.382;2023-07-31T12:51:56;2.08;;;1.02;;
26042;SDS011;13818;52.156;5.382;2023-07-31T12:54:22;2.60;;;2.05;;
26042;SDS011;13818;52.156;5.382;2023-07-31T12:56:49;2.05;;;1.48;;
26042;SDS011;13818;52.156;5.382;2023-07-31T12:59:15;2.60;;;1.40;;
26042;SDS011;13818;52.156;5.382;2023-07-31T13:01:43;4.53;;;1.33;;
26042;SDS011;13818;52.156;5.382;2023-07-31T13:04:10;3.42;;;1.05;;
26042;SDS011;13818;52.156;5.382;2023-07-31T13:06:37;2.70;;;1.52;;
26042;SDS011;13818;52.156;5.382;2023-07-31T13:09:03;3.17;;;1.60;;
26042;SDS011;13818;52.156;5.382;2023-07-31T13:11:30;2.20;;;1.20;;
26042;SDS011;13818;52.156;5.382;2023-07-31T13:13:56;2.45;;;1.52;;
26042;SDS011;13818;52.156;5.382;2023-07-31T13:16:23;2.60;;;1.52;;
26042;SDS011;13818;52.156;5.382;2023-07-31T13:18:49;3.20;;;1.25;;
26042;SDS011;13818;52.156;5.382;2023-07-31T13:21:18;3.03;;;1.52;;
26042;SDS011;13818;52.156;5.382;2023-07-31T13:23:44;2.45;;;1.30;;
26042;SDS011;13818;52.156;5.382;2023-07-31T13:26:11;2.83;;;1.65;;
26042;SDS011;13818;52.156;5.382;2023-07-31T13:28:37;4.55;;;1.50;;
26042;SDS011;13818;52.156;5.382;2023-07-31T13:31:03;2.35;;;1.63;;
26042;SDS011;13818;52.156;5.382;2023-07-31T13:33:30;2.38;;;1.33;;
26042;SDS011;13818;52.156;5.382;2023-07-31T13:35:56;2.55;;;1.20;;
26042;SDS011;13818;52.156;5.382;2023-07-31T13:38:24;2.38;;;1.30;;
26042;SDS011;13818;52.156;5.382;2023-07-31T13:40:51;3.33;;;1.45;;
26042;SDS011;13818;52.156;5.382;2023-07-31T13:43:17;2.70;;;1.50;;
26042;SDS011;13818;52.156;5.382;2023-07-31T13:45:43;2.08;;;1.33;;
26042;SDS011;13818;52.156;5.382;2023-07-31T13:48:10;2.42;;;1.00;;
26042;SDS011;13818;52.156;5.382;2023-07-31T13:50:36;2.30;;;1.00;;
26042;SDS011;13818;52.156;5.382;2023-07-31T13:53:03;2.42;;;1.00;;
26042;SDS011;13818;52.156;5.382;2023-07-31T13:55:31;2.72;;;0.85;;
26042;SDS011;13818;52.156;5.382;2023-07-31T13:57:57;2.33;;;0.63;;
26042;SDS011;13818;52.156;5.382;2023-07-31T14:00:24;1.55;;;0.52;;
26042;SDS011;13818;52.156;5.382;2023-07-31T14:02:50;1.77;;;0.93;;
26042;SDS011;13818;52.156;5.382;2023-07-31T14:05:17;1.70;;;0.70;;
26042;SDS011;13818;52.156;5.382;2023-07-31T14:07:43;1.75;;;0.50;;
26042;SDS011;13818;52.156;5.382;2023-07-31T14:10:10;1.38;;;0.68;;
26042;SDS011;13818;52.156;5.382;2023-07-31T14:12:38;1.92;;;0.82;;
26042;SDS011;13818;52.156;5.382;2023-07-31T14:15:05;2.40;;;0.90;;
26042;SDS011;13818;52.156;5.382;2023-07-31T14:17:32;2.70;;;0.85;;
26042;SDS011;13818;52.156;5.382;2023-07-31T14:19:59;1.95;;;0.88;;
26042;SDS011;13818;52.156;5.382;2023-07-31T14:22:28;1.95;;;1.00;;
26042;SDS011;13818;52.156;5.382;2023-07-31T14:24:55;2.38;;;0.98;;
26042;SDS011;13818;52.156;5.382;2023-07-31T14:27:21;2.30;;;1.10;;
26042;SDS011;13818;52.156;5.382;2023-07-31T14:29:49;2.33;;;1.20;;
26042;SDS011;13818;52.156;5.382;2023-07-31T14:32:15;3.25;;;1.00;;
26042;SDS011;13818;52.156;5.382;2023-07-31T14:34:42;1.88;;;1.20;;
26042;SDS011;13818;52.156;5.382;2023-07-31T14:37:08;2.90;;;1.33;;
26042;SDS011;13818;52.156;5.382;2023-07-31T14:39:35;3.72;;;1.58;;
26042;SDS011;13818;52.156;5.382;2023-07-31T14:42:01;5.63;;;2.20;;
26042;SDS011;13818;52.156;5.382;2023-07-31T14:44:28;3.20;;;1.92;;
26042;SDS011;13818;52.156;5.382;2023-07-31T14:46:56;3.90;;;2.03;;
26042;SDS011;13818;52.156;5.382;2023-07-31T14:49:22;5.18;;;2.22;;
26042;SDS011;13818;52.156;5.382;2023-07-31T14:51:48;6.57;;;2.70;;
26042;SDS011;13818;52.156;5.382;2023-07-31T14:54:15;6.13;;;2.97;;